Time;durP1;ratioP1;P1;durP2;ratioP2;P2;SDS_P1;SDS_P2;PMS_P1;PMS_P2;Temp;Humidity;BMP_temperature;BMP_pressure;BME280_temperature;BME280_humidity;BME280_pressure;Samples;Min_cycle;Max_cycle;Signal;HPM_P1;HPM_P2
2023/04/23 00:01:28;;;;;;;30.17;25.50;;;10.40;1.00;;;;;;5079375;28;20812;-63
2023/04/23 00:03:57;;;;;;;32.20;24.80;;;10.30;1.00;;;;;;5079116;28;20560;-63
2023/04/23 00:06:25;;;;;;;31.53;25.07;;;10.30;1.00;;;;;;5079276;28;20468;-63
2023/04/23 00:08:57;;;;;;;29.70;25.30;;;10.30;99.90;;;;;;5079460;28;20870;-63
2023/04/23 00:11:24;;;;;;;27.70;24.70;;;10.30;99.90;;;;;;5079207;28;20462;-63
2023/04/23 00:13:52;;;;;;;26.77;23.63;;;10.30;1.00;;;;;;5078969;28;20561;-63
2023/04/23 00:16:21;;;;;;;31.67;26.93;;;10.30;99.90;;;;;;5078987;28;20890;-64
2023/04/23 00:18:48;;;;;;;28.00;23.80;;;10.20;53.80;;;;;;5079481;28;20465;-63
2023/04/23 00:21:15;;;;;;;30.70;24.63;;;10.20;99.90;;;;;;5079537;28;20457;-63
2023/04/23 00:23:43;;;;;;;28.33;24.57;;;10.20;99.90;;;;;;5078777;28;20508;-63
2023/04/23 00:26:11;;;;;;;29.30;24.20;;;10.20;99.90;;;;;;5078858;28;20504;-64
2023/04/23 00:28:38;;;;;;;28.10;24.30;;;10.20;99.90;;;;;;5078621;28;20489;-63
2023/04/23 00:31:06;;;;;;;27.83;23.40;;;10.10;99.90;;;;;;5079151;28;20592;-64
2023/04/23 00:33:33;;;;;;;28.10;24.93;;;10.10;1.00;;;;;;5078994;28;20499;-63
2023/04/23 00:36:00;;;;;;;27.70;24.73;;;10.10;99.90;;;;;;5078776;28;20504;-63
2023/04/23 00:38:28;;;;;;;25.07;22.30;;;10.10;1.00;;;;;;5078406;28;20554;-63
2023/04/23 00:40:55;;;;;;;25.87;22.97;;;10.00;99.90;;;;;;5078842;28;20458;-63
2023/04/23 00:43:24;;;;;;;28.27;22.17;;;10.00;1.00;;;;;;5079009;28;20464;-63
2023/04/23 00:45:51;;;;;;;27.13;23.73;;;10.00;1.00;;;;;;5078613;28;20924;-63
2023/04/23 00:48:19;;;;;;;27.80;23.07;;;10.10;99.90;;;;;;5078668;28;20475;-63
2023/04/23 00:50:47;;;;;;;26.40;22.70;;;10.10;99.90;;;;;;5078436;28;20495;-63
2023/04/23 00:53:15;;;;;;;26.00;22.60;;;10.10;99.90;;;;;;5078669;28;20469;-64
2023/04/23 00:55:42;;;;;;;27.27;23.57;;;10.10;99.90;;;;;;5078488;28;20469;-63
2023/04/23 00:58:09;;;;;;;25.73;23.00;;;10.00;1.00;;;;;;5079234;28;20466;-63
2023/04/23 01:00:45;;;;;;;25.67;21.73;;;10.10;1.00;;;;;;5079708;28;20457;-63
2023/04/23 01:03:12;;;;;;;25.40;22.63;;;10.00;1.00;;;;;;5079721;28;20471;-63
2023/04/23 01:05:42;;;;;;;28.43;23.43;;;10.00;22.80;;;;;;5079315;28;20457;-64
2023/04/23 01:08:14;;;;;;;28.33;23.03;;;10.00;99.90;;;;;;5078950;28;20826;-64
2023/04/23 01:10:42;;;;;;;27.40;22.93;;;10.00;1.00;;;;;;5078586;28;20497;-64
2023/04/23 01:13:09;;;;;;;28.83;23.80;;;9.90;1.00;;;;;;5079251;28;20871;-64
2023/04/23 01:15:38;;;;;;;28.63;25.10;;;10.00;1.00;;;;;;5078337;28;20461;-64
2023/04/23 01:18:07;;;;;;;25.00;21.63;;;9.90;1.00;;;;;;5083547;28;20518;-63
2023/04/23 01:20:34;;;;;;;24.87;22.20;;;9.90;1.00;;;;;;5081402;28;20457;-64
2023/04/23 01:23:04;;;;;;;32.30;24.27;;;10.00;20.40;;;;;;5080738;28;20954;-63
2023/04/23 01:25:31;;;;;;;23.57;20.73;;;9.90;1.00;;;;;;5078341;28;20465;-63
2023/04/23 01:27:59;;;;;;;28.77;23.07;;;9.90;1.00;;;;;;5077971;28;20525;-63
2023/04/23 01:30:27;;;;;;;28.40;24.23;;;9.90;57.00;;;;;;5078086;28;20489;-63
2023/04/23 01:32:55;;;;;;;24.43;21.80;;;9.90;99.90;;;;;;5079073;28;20875;-64
2023/04/23 01:35:23;;;;;;;26.37;23.40;;;9.80;82.70;;;;;;5077614;28;20461;-64
2023/04/23 01:37:51;;;;;;;30.40;25.20;;;9.80;88.60;;;;;;5077348;28;20466;-63
2023/04/23 01:40:20;;;;;;;29.33;23.87;;;9.80;99.90;;;;;;5077421;28;20556;-63
2023/04/23 01:42:48;;;;;;;27.30;24.40;;;9.80;99.90;;;;;;5077907;28;20465;-63
2023/04/23 01:45:16;;;;;;;30.27;26.57;;;9.80;99.90;;;;;;5077965;28;20805;-63
2023/04/23 01:47:43;;;;;;;30.67;26.40;;;9.80;99.90;;;;;;5077646;28;20841;-63
2023/04/23 01:50:11;;;;;;;32.37;25.70;;;9.80;99.90;;;;;;5076919;28;20584;-64
2023/04/23 01:52:39;;;;;;;28.50;24.70;;;9.80;99.90;;;;;;5077794;28;20969;-64
2023/04/23 01:55:06;;;;;;;28.47;24.80;;;9.80;99.90;;;;;;5077526;28;20515;-64
2023/04/23 01:57:35;;;;;;;30.43;25.57;;;9.80;99.90;;;;;;5077476;28;20905;-64
2023/04/23 02:00:08;;;;;;;28.80;25.37;;;9.70;99.90;;;;;;5077156;28;20560;-63
2023/04/23 02:02:35;;;;;;;30.13;25.20;;;9.70;99.90;;;;;;5077573;28;20465;-64
2023/04/23 02:05:04;;;;;;;31.50;27.70;;;9.70;99.90;;;;;;5074897;28;20501;-63
2023/04/23 02:07:31;;;;;;;31.17;26.40;;;9.70;99.90;;;;;;5077437;28;20465;-63
2023/04/23 02:09:59;;;;;;;30.80;26.03;;;9.60;99.90;;;;;;5076652;28;20528;-63
2023/04/23 02:12:26;;;;;;;35.60;27.10;;;9.60;99.90;;;;;;5077397;28;20476;-64
2023/04/23 02:14:55;;;;;;;31.03;25.70;;;9.60;99.90;;;;;;5077172;28;20466;-63
2023/04/23 02:17:22;;;;;;;33.33;26.70;;;9.50;99.90;;;;;;5076785;28;20461;-63
2023/04/23 02:19:50;;;;;;;32.20;27.30;;;9.50;99.90;;;;;;5077129;28;20461;-63
2023/04/23 02:22:17;;;;;;;31.33;26.60;;;9.50;99.90;;;;;;5077092;28;20841;-63
2023/04/23 02:24:46;;;;;;;33.77;27.93;;;9.60;99.90;;;;;;5077561;28;20471;-64
2023/04/23 02:27:13;;;;;;;34.57;27.17;;;9.50;99.90;;;;;;5077227;28;20584;-64
2023/04/23 02:29:40;;;;;;;34.33;26.93;;;9.50;99.90;;;;;;5077155;28;20484;-63
2023/04/23 02:32:09;;;;;;;36.73;27.83;;;9.60;99.90;;;;;;5076833;28;20519;-63
2023/04/23 02:34:37;;;;;;;31.60;27.43;;;9.50;99.90;;;;;;5077032;28;20473;-63
2023/04/23 02:37:05;;;;;;;33.83;26.90;;;9.40;99.90;;;;;;5076524;28;20461;-64
2023/04/23 02:39:32;;;;;;;31.30;25.20;;;9.40;99.90;;;;;;5077823;28;20468;-63
2023/04/23 02:41:59;;;;;;;31.17;27.00;;;9.40;99.90;;;;;;5080975;28;20453;-63
2023/04/23 02:44:26;;;;;;;30.93;26.50;;;9.50;99.90;;;;;;5080894;28;20460;-64
2023/04/23 02:46:53;;;;;;;33.03;27.67;;;9.50;99.90;;;;;;5081423;28;20882;-64
2023/04/23 02:49:22;;;;;;;34.87;27.47;;;9.50;99.90;;;;;;5081068;28;20464;-64
2023/04/23 02:51:49;;;;;;;35.53;29.13;;;9.50;99.90;;;;;;5080980;28;20493;-63
2023/04/23 02:54:17;;;;;;;34.60;28.20;;;9.50;99.90;;;;;;5080662;28;20467;-64
2023/04/23 02:56:44;;;;;;;31.97;27.27;;;9.40;99.90;;;;;;5081806;28;20567;-63
2023/04/23 02:59:11;;;;;;;30.93;26.07;;;9.40;99.90;;;;;;5081793;28;20547;-63
2023/04/23 03:01:39;;;;;;;32.67;26.07;;;9.30;99.90;;;;;;5081045;28;20463;-63
2023/04/23 03:04:06;;;;;;;30.77;26.67;;;9.20;99.90;;;;;;5080740;28;20557;-64
2023/04/23 03:06:35;;;;;;;31.10;26.20;;;9.10;99.90;;;;;;5080838;28;20469;-64
2023/04/23 03:09:03;;;;;;;31.23;26.53;;;9.20;99.90;;;;;;5080638;28;20483;-63
2023/04/23 03:11:30;;;;;;;31.30;27.67;;;9.20;99.90;;;;;;5080476;28;20489;-63
2023/04/23 03:13:58;;;;;;;31.27;25.63;;;9.10;99.90;;;;;;5080640;28;20945;-64
2023/04/23 03:16:27;;;;;;;31.77;26.13;;;9.10;99.90;;;;;;5080502;28;20467;-64
2023/04/23 03:18:54;;;;;;;31.90;26.70;;;9.00;99.90;;;;;;5080733;28;20594;-63
2023/04/23 03:21:21;;;;;;;35.00;26.30;;;9.00;99.90;;;;;;5080617;28;20475;-64
2023/04/23 03:23:50;;;;;;;36.87;27.27;;;8.90;99.90;;;;;;5080219;28;20457;-64
2023/04/23 03:26:17;;;;;;;29.90;26.07;;;8.90;99.90;;;;;;5080183;28;20461;-63
2023/04/23 03:28:44;;;;;;;30.63;25.80;;;8.90;99.90;;;;;;5080301;28;20589;-64
2023/04/23 03:31:12;;;;;;;37.13;27.33;;;8.90;99.90;;;;;;5080670;28;20532;-63
2023/04/23 03:33:39;;;;;;;30.33;26.43;;;9.00;99.90;;;;;;5081288;28;20458;-63
2023/04/23 03:36:06;;;;;;;35.27;28.13;;;9.00;99.90;;;;;;5080435;28;20497;-64
2023/04/23 03:38:34;;;;;;;32.63;26.30;;;9.00;99.90;;;;;;5079504;28;20501;-63
2023/04/23 03:41:02;;;;;;;34.03;28.20;;;9.10;99.90;;;;;;5080252;28;20457;-63
2023/04/23 03:43:29;;;;;;;32.63;26.57;;;9.00;99.90;;;;;;5080196;28;20543;-63
2023/04/23 03:45:57;;;;;;;35.57;27.20;;;9.10;99.90;;;;;;5079596;28;20465;-63
2023/04/23 03:48:24;;;;;;;33.03;29.30;;;9.20;99.90;;;;;;5079930;28;20551;-64
2023/04/23 03:50:51;;;;;;;33.53;28.27;;;9.20;99.90;;;;;;5079275;28;20511;-63
2023/04/23 03:53:19;;;;;;;31.93;27.57;;;9.30;99.90;;;;;;5079976;28;20475;-63
2023/04/23 03:55:46;;;;;;;34.90;28.00;;;9.30;99.90;;;;;;5079384;28;20468;-64
2023/04/23 03:58:14;;;;;;;36.37;29.30;;;9.40;99.90;;;;;;5079523;28;20556;-64
2023/04/23 04:00:42;;;;;;;37.10;29.00;;;9.40;99.90;;;;;;5079924;28;20467;-63
2023/04/23 04:03:09;;;;;;;32.20;27.80;;;9.40;99.90;;;;;;5079708;28;20556;-63
2023/04/23 04:05:36;;;;;;;32.40;27.10;;;9.40;99.90;;;;;;5079108;28;20548;-64
2023/04/23 04:08:04;;;;;;;33.23;29.60;;;9.40;99.90;;;;;;5079418;28;20776;-63
2023/04/23 04:10:31;;;;;;;34.87;29.50;;;9.40;99.90;;;;;;5079288;28;20489;-63
2023/04/23 04:12:58;;;;;;;33.17;28.00;;;9.40;99.90;;;;;;5079692;28;20559;-63
2023/04/23 04:15:27;;;;;;;34.50;28.03;;;9.50;99.90;;;;;;5079665;28;20540;-63
2023/04/23 04:17:54;;;;;;;36.43;29.80;;;9.50;99.90;;;;;;5079013;28;20461;-64
2023/04/23 04:20:21;;;;;;;33.40;28.73;;;9.50;99.90;;;;;;5079097;28;20560;-63
2023/04/23 04:22:49;;;;;;;29.60;26.40;;;9.40;99.90;;;;;;5079607;28;20483;-63
2023/04/23 04:25:16;;;;;;;34.63;27.70;;;9.40;99.90;;;;;;5078722;28;20435;-64
2023/04/23 04:27:43;;;;;;;33.20;27.67;;;9.30;99.90;;;;;;5078630;28;20495;-63
2023/04/23 04:30:11;;;;;;;32.30;27.77;;;9.30;99.90;;;;;;5079000;28;20822;-63
2023/04/23 04:32:41;;;;;;;34.80;27.50;;;9.30;99.90;;;;;;5079078;28;20497;-63
2023/04/23 04:35:09;;;;;;;33.60;27.90;;;9.20;99.90;;;;;;5078965;28;20462;-63
2023/04/23 04:37:36;;;;;;;30.37;27.07;;;9.10;99.90;;;;;;5078524;28;20495;-63
2023/04/23 04:40:06;;;;;;;35.60;29.80;;;9.10;99.90;;;;;;5079005;28;20559;-63
2023/04/23 04:42:33;;;;;;;33.57;26.87;;;9.10;99.90;;;;;;5078776;28;20487;-63
2023/04/23 04:45:00;;;;;;;33.87;27.73;;;9.00;99.90;;;;;;5079067;28;20564;-63
2023/04/23 04:47:28;;;;;;;34.07;28.00;;;9.10;99.90;;;;;;5078609;28;20461;-64
2023/04/23 04:49:56;;;;;;;34.70;27.67;;;9.00;99.90;;;;;;5078724;28;20466;-63
2023/04/23 04:52:24;;;;;;;34.93;28.87;;;9.10;99.90;;;;;;5078509;28;20988;-63
2023/04/23 04:54:51;;;;;;;35.23;27.77;;;9.00;99.90;;;;;;5078515;28;20461;-64
2023/04/23 04:57:20;;;;;;;33.50;27.40;;;9.00;99.90;;;;;;5076635;28;20512;-64
2023/04/23 04:59:47;;;;;;;37.00;28.47;;;8.90;99.90;;;;;;5078321;28;20560;-64
2023/04/23 05:02:15;;;;;;;33.23;27.57;;;8.90;99.90;;;;;;5076887;28;20471;-64
2023/04/23 05:04:42;;;;;;;32.80;28.03;;;8.90;99.90;;;;;;5078673;28;20465;-64
2023/04/23 05:07:11;;;;;;;36.87;30.37;;;8.90;99.90;;;;;;5078073;28;20462;-63
2023/04/23 05:09:38;;;;;;;33.07;28.43;;;9.00;99.90;;;;;;5078104;28;20750;-63
2023/04/23 05:12:06;;;;;;;33.47;27.70;;;9.00;99.90;;;;;;5078154;28;20493;-63
2023/04/23 05:14:33;;;;;;;33.70;27.90;;;9.10;99.90;;;;;;5078474;28;20457;-64
2023/04/23 05:17:01;;;;;;;32.80;28.33;;;9.30;99.90;;;;;;5078061;28;20560;-63
2023/04/23 05:19:28;;;;;;;32.83;27.47;;;9.50;99.90;;;;;;5078085;28;20497;-64
2023/04/23 05:21:55;;;;;;;34.27;28.07;;;9.60;99.90;;;;;;5078187;28;20458;-64
2023/04/23 05:24:24;;;;;;;31.13;27.73;;;9.80;99.90;;;;;;5078920;28;20795;-63
2023/04/23 05:26:51;;;;;;;27.40;23.83;;;9.90;99.90;;;;;;5077538;28;20522;-63
2023/04/23 05:29:18;;;;;;;29.83;24.73;;;10.10;99.90;;;;;;5079215;28;20560;-64
2023/04/23 05:31:46;;;;;;;31.20;26.37;;;10.30;99.90;;;;;;5078921;28;20937;-63
2023/04/23 05:34:13;;;;;;;28.70;24.90;;;10.40;99.90;;;;;;5078707;28;20901;-64
2023/04/23 05:36:40;;;;;;;27.50;22.90;;;10.40;99.90;;;;;;5078509;28;20472;-64
2023/04/23 05:39:08;;;;;;;27.83;23.40;;;10.60;99.90;;;;;;5079274;28;20495;-64
2023/04/23 05:41:36;;;;;;;25.83;21.40;;;10.60;99.90;;;;;;5078668;28;20457;-64
2023/04/23 05:44:04;;;;;;;26.10;22.03;;;10.60;99.90;;;;;;5078867;28;20559;-64
2023/04/23 05:46:31;;;;;;;26.37;21.10;;;10.70;99.90;;;;;;5079226;28;20468;-64
2023/04/23 05:48:58;;;;;;;24.87;22.27;;;10.70;99.90;;;;;;5078947;28;20466;-64
2023/04/23 05:51:26;;;;;;;22.20;19.83;;;10.90;99.90;;;;;;5077974;28;20493;-64
2023/04/23 05:53:53;;;;;;;27.23;20.80;;;10.90;99.90;;;;;;5078603;28;20902;-64
2023/04/23 05:56:21;;;;;;;21.50;19.17;;;11.00;99.90;;;;;;5078367;28;20461;-64
2023/04/23 05:58:49;;;;;;;22.23;19.93;;;11.00;99.90;;;;;;5078483;28;20552;-64
2023/04/23 06:01:16;;;;;;;21.60;19.10;;;11.10;99.90;;;;;;5077399;28;20544;-64
2023/04/23 06:03:44;;;;;;;22.10;19.37;;;11.10;99.90;;;;;;5077832;28;20465;-64
2023/04/23 06:06:12;;;;;;;19.63;17.53;;;11.20;99.90;;;;;;5077496;28;20557;-64
2023/04/23 06:08:39;;;;;;;22.10;18.10;;;11.30;1.00;;;;;;5078037;28;20464;-65
2023/04/23 06:11:07;;;;;;;19.23;17.23;;;11.50;1.00;;;;;;5076390;28;20475;-64
2023/04/23 06:13:39;;;;;;;19.60;17.53;;;11.60;64.30;;;;;;5076357;28;20480;-65
2023/04/23 06:16:07;;;;;;;20.20;18.10;;;11.60;1.00;;;;;;5076202;28;20477;-64
2023/04/23 06:18:35;;;;;;;18.87;16.83;;;11.70;99.90;;;;;;5077919;28;20465;-65
2023/04/23 06:21:03;;;;;;;19.83;17.27;;;11.70;1.00;;;;;;5077961;28;20469;-65
2023/04/23 06:23:30;;;;;;;17.93;16.07;;;11.70;1.00;;;;;;5077876;28;20747;-64
2023/04/23 06:25:57;;;;;;;18.40;16.40;;;11.70;1.00;;;;;;5077437;28;20468;-65
2023/04/23 06:28:25;;;;;;;17.80;15.90;;;11.70;99.90;;;;;;5077781;28;20488;-64
2023/04/23 06:30:52;;;;;;;17.20;15.03;;;11.90;99.90;;;;;;5077942;28;20768;-64
2023/04/23 06:33:21;;;;;;;19.00;17.00;;;12.00;1.00;;;;;;5077644;28;20552;-65
2023/04/23 06:35:48;;;;;;;19.30;15.77;;;12.10;99.90;;;;;;5076822;28;20461;-65
2023/04/23 06:38:17;;;;;;;17.87;15.97;;;12.30;99.90;;;;;;5077339;28;20487;-66
2023/04/23 06:40:44;;;;;;;15.43;13.23;;;12.50;1.00;;;;;;5077237;28;20444;-65
2023/04/23 06:43:13;;;;;;;14.63;13.13;;;12.90;99.90;;;;;;5077385;28;20760;-66
2023/04/23 06:45:40;;;;;;;15.33;13.77;;;13.20;1.00;;;;;;5076418;28;20472;-66
2023/04/23 06:48:07;;;;;;;14.30;12.83;;;13.40;99.90;;;;;;5077087;28;20469;-64
2023/04/23 06:50:36;;;;;;;13.90;12.50;;;13.40;1.00;;;;;;5076757;28;20472;-66
2023/04/23 06:53:03;;;;;;;13.47;12.17;;;13.50;1.00;;;;;;5077080;28;20539;-66
2023/04/23 06:55:30;;;;;;;14.43;13.03;;;13.50;1.00;;;;;;5076487;28;20465;-66
2023/04/23 06:57:57;;;;;;;15.97;11.87;;;13.50;1.00;;;;;;5076926;28;20549;-65
2023/04/23 07:00:25;;;;;;;14.13;12.63;;;13.50;1.00;;;;;;5077207;28;20465;-64
2023/04/23 07:02:52;;;;;;;14.20;12.63;;;13.50;1.00;;;;;;5077016;28;20903;-65
2023/04/23 07:05:20;;;;;;;12.23;11.03;;;13.60;1.00;;;;;;5077093;28;20476;-65
2023/04/23 07:07:48;;;;;;;13.67;11.97;;;13.70;1.00;;;;;;5076970;28;20469;-65
2023/04/23 07:10:16;;;;;;;11.30;10.10;;;13.70;1.00;;;;;;5076955;28;20461;-64
2023/04/23 07:12:43;;;;;;;13.50;10.40;;;13.50;1.00;;;;;;5077009;28;20575;-64
2023/04/23 07:15:13;;;;;;;11.97;10.83;;;13.50;1.00;;;;;;5077477;28;20530;-65
2023/04/23 07:17:40;;;;;;;12.60;11.30;;;13.40;1.00;;;;;;5076696;28;20465;-65
2023/04/23 07:20:09;;;;;;;12.90;11.60;;;13.40;1.00;;;;;;5076453;28;20549;-62
2023/04/23 07:22:36;;;;;;;12.13;10.90;;;13.50;1.00;;;;;;5077199;28;20564;-64
2023/04/23 07:25:07;;;;;;;10.50;9.33;;;13.40;1.00;;;;;;5077063;28;20547;-62
2023/04/23 07:27:34;;;;;;;11.43;10.33;;;13.40;1.00;;;;;;5079731;28;20815;-63
2023/04/23 07:30:01;;;;;;;11.10;10.03;;;13.60;1.00;;;;;;5079566;28;20432;-63
2023/04/23 07:32:29;;;;;;;11.27;10.17;;;14.00;1.00;;;;;;5078065;28;20972;-63
2023/04/23 07:34:56;;;;;;;10.53;9.63;;;14.50;1.00;;;;;;5078514;28;20556;-63
2023/04/23 07:37:26;;;;;;;12.53;8.40;;;15.10;1.00;;;;;;5078361;28;20778;-63
2023/04/23 07:39:53;;;;;;;10.07;9.07;;;15.60;1.00;;;;;;5078025;28;20461;-63
2023/04/23 07:42:22;;;;;;;9.40;8.50;;;15.70;1.00;;;;;;5078483;28;20544;-62
2023/04/23 07:44:49;;;;;;;9.60;8.30;;;15.90;1.00;;;;;;5079153;28;20485;-63
2023/04/23 07:47:17;;;;;;;8.33;7.30;;;16.10;1.00;;;;;;5079343;28;20461;-63
2023/04/23 07:49:44;;;;;;;8.87;8.07;;;16.40;1.00;;;;;;5079545;28;20522;-62
2023/04/23 07:52:11;;;;;;;7.90;7.20;;;16.60;1.00;;;;;;5079311;28;20493;-63
2023/04/23 07:54:38;;;;;;;8.53;7.73;;;16.50;1.00;;;;;;5079059;28;20643;-64
2023/04/23 07:57:06;;;;;;;9.13;7.40;;;16.40;1.00;;;;;;5079346;28;20897;-63
2023/04/23 07:59:34;;;;;;;8.70;7.80;;;16.10;1.00;;;;;;5079157;28;20457;-62
2023/04/23 08:02:02;;;;;;;7.87;7.17;;;15.60;1.00;;;;;;5079282;28;20552;-62
2023/04/23 08:04:29;;;;;;;7.83;6.70;;;15.90;1.00;;;;;;5079464;28;20578;-62
2023/04/23 08:06:57;;;;;;;9.53;7.40;;;16.40;1.00;;;;;;5079698;28;20804;-62
2023/04/23 08:09:24;;;;;;;7.53;5.70;;;17.00;1.00;;;;;;5078970;28;20465;-63
2023/04/23 08:11:52;;;;;;;6.30;5.57;;;17.30;1.00;;;;;;5079178;28;20833;-62
2023/04/23 08:14:19;;;;;;;7.60;6.67;;;16.90;1.00;;;;;;5079009;28;20770;-62
2023/04/23 08:16:48;;;;;;;6.40;5.70;;;17.00;1.00;;;;;;5079435;28;20461;-62
2023/04/23 08:19:16;;;;;;;6.93;5.70;;;17.20;1.00;;;;;;5079424;28;20813;-62
2023/04/23 08:21:43;;;;;;;7.33;6.00;;;17.70;1.00;;;;;;5079111;28;20461;-61
2023/04/23 08:24:10;;;;;;;7.53;6.63;;;18.00;1.00;;;;;;5079209;28;20465;-63
2023/04/23 08:26:37;;;;;;;6.20;5.53;;;17.80;1.00;;;;;;5079207;28;20552;-63
2023/04/23 08:29:05;;;;;;;6.03;5.40;;;17.60;1.00;;;;;;5079371;28;20466;-61
2023/04/23 08:31:33;;;;;;;5.77;5.17;;;17.60;1.00;;;;;;5078983;28;20762;-62
2023/04/23 08:34:01;;;;;;;9.23;5.63;;;17.80;1.00;;;;;;5078648;28;20761;-61
2023/04/23 08:36:29;;;;;;;9.20;5.30;;;18.10;1.00;;;;;;5079205;28;20485;-62
2023/04/23 08:38:56;;;;;;;6.83;6.00;;;17.80;1.00;;;;;;5079041;28;20460;-58
2023/04/23 08:41:27;;;;;;;6.77;5.03;;;17.60;1.00;;;;;;5078614;28;20514;-62
2023/04/23 08:44:03;;;;;;;5.60;5.10;;;17.50;1.00;;;;;;5078806;28;20547;-61
2023/04/23 08:46:32;;;;;;;6.60;5.20;;;17.80;1.00;;;;;;5079017;28;20769;-62
2023/04/23 08:49:03;;;;;;;7.23;4.80;;;17.70;1.00;;;;;;5078770;28;20461;-58
2023/04/23 08:51:33;;;;;;;5.80;4.67;;;17.90;1.00;;;;;;5078427;28;20749;-62
2023/04/23 08:54:05;;;;;;;6.17;4.60;;;18.10;1.00;;;;;;5078471;28;20589;-61
2023/04/23 08:56:33;;;;;;;7.93;5.10;;;18.40;99.90;;;;;;5077570;28;20461;-60
2023/04/23 08:59:02;;;;;;;5.43;4.47;;;18.70;99.90;;;;;;5077382;28;20514;-62
2023/04/23 09:01:30;;;;;;;6.07;4.43;;;19.10;99.90;;;;;;5077109;28;20552;-61
2023/04/23 09:03:58;;;;;;;5.40;4.90;;;19.20;99.90;;;;;;5076459;28;20457;-62
2023/04/23 09:06:27;;;;;;;5.83;5.20;;;18.70;99.90;;;;;;5076752;28;20494;-62
2023/04/23 09:08:55;;;;;;;5.17;4.53;;;17.70;99.90;;;;;;5077054;28;20469;-62
2023/04/23 09:11:27;;;;;;;8.53;4.30;;;17.20;99.90;;;;;;5077078;28;20920;-62
2023/04/23 09:13:54;;;;;;;5.70;4.87;;;16.90;99.90;;;;;;5076948;28;20499;-61
2023/04/23 09:16:21;;;;;;;6.30;4.63;;;16.90;99.90;;;;;;5078141;28;20461;-60
2023/04/23 09:18:50;;;;;;;5.27;4.03;;;17.00;99.90;;;;;;5077889;28;20552;-60
2023/04/23 09:21:17;;;;;;;4.53;4.00;;;17.20;99.90;;;;;;5075839;28;20468;-61
2023/04/23 09:23:46;;;;;;;7.33;4.80;;;17.70;99.90;;;;;;5076121;28;20453;-62
2023/04/23 09:26:20;;;;;;;4.60;4.20;;;17.40;99.90;;;;;;5076100;28;20457;-61
2023/04/23 09:28:50;;;;;;;5.27;4.57;;;17.30;99.90;;;;;;5076137;28;20484;-60
2023/04/23 09:31:21;;;;;;;6.27;4.10;;;17.20;99.90;;;;;;5076761;28;20955;-60
2023/04/23 09:33:54;;;;;;;5.53;3.90;;;17.00;99.90;;;;;;5076136;28;20679;-61
2023/04/23 09:36:22;;;;;;;4.40;3.93;;;16.70;99.90;;;;;;5077923;28;20914;-59
2023/04/23 09:38:56;;;;;;;5.03;4.07;;;16.90;99.90;;;;;;5077862;28;20476;-54
2023/04/23 09:41:23;;;;;;;9.70;5.10;;;17.10;99.90;;;;;;5077256;28;20457;-59
2023/04/23 09:43:53;;;;;;;6.03;4.53;;;17.30;99.90;;;;;;5077655;28;20565;-59
2023/04/23 09:46:34;;;;;;;5.53;4.33;;;17.80;99.90;;;;;;5068445;28;20485;-59
2023/04/23 09:49:02;;;;;;;6.50;4.20;;;18.60;99.90;;;;;;5071240;28;20477;-60
2023/04/23 09:51:30;;;;;;;4.70;4.20;;;18.60;99.90;;;;;;5075264;28;20457;-59
2023/04/23 09:54:02;;;;;;;6.87;4.23;;;18.20;99.90;;;;;;5075739;28;20871;-56
2023/04/23 09:56:31;;;;;;;3.80;3.40;;;17.70;99.90;;;;;;5075984;28;20764;-61
2023/04/23 09:58:58;;;;;;;5.27;4.50;;;17.10;99.90;;;;;;5075527;28;20563;-56
2023/04/23 10:01:29;;;;;;;5.90;4.07;;;16.90;99.90;;;;;;5075682;28;20491;-59
2023/04/23 10:03:57;;;;;;;4.80;4.40;;;17.70;99.90;;;;;;5075433;28;20457;-57
2023/04/23 10:06:31;;;;;;;6.60;3.97;;;18.30;99.90;;;;;;5076585;28;20461;-55
2023/04/23 10:09:00;;;;;;;4.00;3.60;;;19.30;99.90;;;;;;5076923;28;20949;-57
2023/04/23 10:11:28;;;;;;;6.10;3.20;;;19.60;99.90;;;;;;5076290;28;20461;-60
2023/04/23 10:13:56;;;;;;;3.97;3.57;;;19.50;99.90;;;;;;5063214;28;20914;-60
2023/04/23 10:16:23;;;;;;;4.43;3.13;;;19.10;99.90;;;;;;5056612;28;20466;-60
2023/04/23 10:18:54;;;;;;;3.60;3.30;;;18.70;99.90;;;;;;5055188;28;20496;-56
2023/04/23 10:21:23;;;;;;;4.80;3.70;;;18.10;99.90;;;;;;5054659;28;20466;-60
2023/04/23 10:23:51;;;;;;;4.13;3.20;;;17.90;99.90;;;;;;5053173;28;20454;-57
2023/04/23 10:26:22;;;;;;;4.00;3.70;;;18.10;99.90;;;;;;5053159;28;20500;-55
2023/04/23 10:28:54;;;;;;;4.23;3.50;;;18.40;99.90;;;;;;5053897;28;20520;-55
2023/04/23 10:31:22;;;;;;;4.73;3.60;;;18.50;99.90;;;;;;5053823;28;20458;-60
2023/04/23 10:33:50;;;;;;;5.93;3.40;;;18.70;99.90;;;;;;5053735;28;20533;-59
2023/04/23 10:36:18;;;;;;;5.17;3.83;;;18.50;99.90;;;;;;5053640;28;20905;-59
2023/04/23 10:38:47;;;;;;;9.30;4.00;;;18.60;99.90;;;;;;5053864;28;20880;-58
2023/04/23 10:41:22;;;;;;;5.07;3.30;;;18.80;99.90;;;;;;5053501;28;20497;-61
2023/04/23 10:43:53;;;;;;;6.63;3.80;;;18.90;99.90;;;;;;5053133;28;20691;-58
2023/04/23 10:46:30;;;;;;;4.43;3.80;;;18.50;99.90;;;;;;5055165;28;20943;-61
2023/04/23 10:49:13;;;;;;;6.77;3.57;;;18.60;99.90;;;;;;5056876;28;20466;-59
2023/04/23 10:51:41;;;;;;;5.27;3.47;;;18.90;99.90;;;;;;5056558;28;20621;-58
2023/04/23 10:54:10;;;;;;;3.87;3.20;;;19.10;99.90;;;;;;5056746;28;20939;-56
2023/04/23 10:56:38;;;;;;;4.40;4.00;;;19.20;99.90;;;;;;5057027;28;20544;-60
2023/04/23 10:59:08;;;;;;;4.80;3.33;;;19.20;99.90;;;;;;5056525;28;20505;-58
2023/04/23 11:01:35;;;;;;;4.70;3.50;;;19.00;99.90;;;;;;5062722;28;20453;-59
2023/04/23 11:04:22;;;;;;;3.60;3.30;;;18.60;99.90;;;;;;5080052;28;20485;-56
2023/04/23 11:06:55;;;;;;;3.63;3.33;;;18.60;99.90;;;;;;5079500;28;20460;-58
2023/04/23 11:09:36;;;;;;;4.30;3.90;;;18.50;99.90;;;;;;5080524;28;20456;-58
2023/04/23 11:12:07;;;;;;;3.47;3.17;;;18.90;99.90;;;;;;5077552;28;20496;-56
2023/04/23 11:14:37;;;;;;;3.80;3.33;;;18.70;99.90;;;;;;5078654;28;20497;-57
2023/04/23 11:17:13;;;;;;;4.50;3.37;;;18.60;99.90;;;;;;5078495;28;20543;-56
2023/04/23 11:19:42;;;;;;;3.23;2.93;;;18.60;99.90;;;;;;5076596;28;20748;-56
2023/04/23 11:22:16;;;;;;;3.53;2.80;;;18.20;99.90;;;;;;5076481;28;20764;-55
2023/04/23 11:24:45;;;;;;;5.07;3.00;;;18.10;99.90;;;;;;5074806;28;20723;-57
2023/04/23 11:27:16;;;;;;;3.47;3.17;;;18.20;99.90;;;;;;5073362;28;20905;-58
2023/04/23 11:29:46;;;;;;;4.00;3.40;;;18.40;99.90;;;;;;5078703;28;20496;-57
2023/04/23 11:32:28;;;;;;;3.73;3.10;;;18.50;99.90;;;;;;5077748;28;20528;-59
2023/04/23 11:34:57;;;;;;;3.50;3.20;;;18.70;99.90;;;;;;5077696;28;20546;-57
2023/04/23 11:37:25;;;;;;;4.37;2.33;;;19.00;99.90;;;;;;5076980;28;20511;-58
2023/04/23 11:39:53;;;;;;;5.27;2.10;;;19.60;99.90;;;;;;5077704;28;20749;-59
2023/04/23 11:42:20;;;;;;;3.67;3.10;;;20.30;99.90;;;;;;5076786;28;20451;-57
2023/04/23 11:44:49;;;;;;;2.67;2.47;;;20.70;99.90;;;;;;5076040;28;20511;-56
2023/04/23 11:47:26;;;;;;;4.00;2.53;;;21.20;99.90;;;;;;5071711;28;20493;-57
2023/04/23 11:49:53;;;;;;;3.67;2.47;;;21.00;99.90;;;;;;5077012;28;20498;-59
2023/04/23 11:52:20;;;;;;;4.20;2.67;;;20.60;99.90;;;;;;5075783;28;20560;-59
2023/04/23 11:54:47;;;;;;;3.07;2.17;;;20.30;99.90;;;;;;5076292;28;20583;-55
2023/04/23 11:57:15;;;;;;;3.77;2.30;;;19.70;99.90;;;;;;5079783;28;20476;-59
2023/04/23 11:59:42;;;;;;;6.43;2.47;;;19.30;99.90;;;;;;5078313;28;20885;-58
2023/04/23 12:02:11;;;;;;;3.97;2.83;;;18.80;99.90;;;;;;5077757;28;20454;-59
2023/04/23 12:04:38;;;;;;;3.03;2.43;;;18.80;99.90;;;;;;5079317;28;20965;-58
2023/04/23 12:07:05;;;;;;;4.37;2.30;;;19.00;99.90;;;;;;5079043;28;20838;-59
2023/04/23 12:09:34;;;;;;;2.53;2.33;;;19.30;99.90;;;;;;5075843;28;20498;-59
2023/04/23 12:12:02;;;;;;;4.27;2.57;;;19.60;99.90;;;;;;5071739;28;20500;-57
2023/04/23 12:14:32;;;;;;;5.77;2.60;;;20.00;99.90;;;;;;5077680;28;20500;-56
2023/04/23 12:17:11;;;;;;;4.17;2.40;;;20.60;99.90;;;;;;5076772;28;20465;-56
2023/04/23 12:19:39;;;;;;;2.97;2.30;;;21.10;99.90;;;;;;5077285;28;20465;-59
2023/04/23 12:22:07;;;;;;;2.73;2.33;;;21.30;99.90;;;;;;5077841;28;20464;-59
2023/04/23 12:24:46;;;;;;;3.50;2.00;;;21.60;99.90;;;;;;5075450;28;20523;-59
2023/04/23 12:27:15;;;;;;;3.63;3.17;;;21.00;99.90;;;;;;5076204;28;20495;-58
2023/04/23 12:29:42;;;;;;;3.07;2.70;;;20.60;99.90;;;;;;5075931;28;20461;-56
2023/04/23 12:32:12;;;;;;;2.90;2.10;;;21.00;99.90;;;;;;5075222;28;20485;-60
2023/04/23 12:34:52;;;;;;;5.50;2.80;;;21.20;99.90;;;;;;5074972;28;20495;-60
2023/04/23 12:37:24;;;;;;;2.97;2.10;;;20.80;99.90;;;;;;5075718;28;20550;-55
2023/04/23 12:39:51;;;;;;;3.43;2.73;;;20.60;99.90;;;;;;5076017;28;20788;-58
2023/04/23 12:42:19;;;;;;;3.70;2.80;;;20.80;99.90;;;;;;5076051;28;20469;-60
2023/04/23 12:44:47;;;;;;;2.80;2.27;;;21.00;99.90;;;;;;5076204;28;20561;-57
2023/04/23 12:47:18;;;;;;;4.03;2.17;;;21.30;99.90;;;;;;5070396;28;20469;-58